createdAt,value
2023-06-04T00:01:50.529Z,66.98
2023-06-04T00:04:18.403Z,67.24
2023-06-04T00:06:46.195Z,67.43
2023-06-04T00:09:13.924Z,67.73
2023-06-04T00:11:41.775Z,68.02
2023-06-04T00:14:09.485Z,68.09
2023-06-04T00:16:37.824Z,68.24
2023-06-04T00:19:05.828Z,68.36
2023-06-04T00:21:33.523Z,68.46
2023-06-04T00:24:02.277Z,68.75
2023-06-04T00:26:30.115Z,68.90
2023-06-04T00:28:58.086Z,69.07
2023-06-04T00:31:25.923Z,69.17
2023-06-04T00:33:53.647Z,69.45
2023-06-04T00:36:21.361Z,69.57
2023-06-04T00:38:49.162Z,69.52
2023-06-04T00:41:17.663Z,69.64
2023-06-04T00:43:56.562Z,69.75
2023-06-04T00:46:27.969Z,69.97
2023-06-04T00:48:56.372Z,70.08
2023-06-04T00:51:24.790Z,70.20
2023-06-04T00:53:53.802Z,70.28
2023-06-04T00:56:21.698Z,70.36
2023-06-04T00:58:49.548Z,70.50
2023-06-04T01:01:46.392Z,70.70
2023-06-04T01:04:25.132Z,70.98
2023-06-04T01:06:57.363Z,71.18
2023-06-04T01:09:28.871Z,71.05
2023-06-04T01:11:59.623Z,71.07
2023-06-04T01:14:27.561Z,71.18
2023-06-04T01:17:04.796Z,71.40
2023-06-04T01:19:33.332Z,71.53
2023-06-04T01:22:05.342Z,71.58
2023-06-04T01:24:39.653Z,71.65
2023-06-04T01:27:08.762Z,71.72
2023-06-04T01:29:37.358Z,71.71
2023-06-04T01:32:06.133Z,71.85
2023-06-04T01:34:45.090Z,71.84
2023-06-04T01:37:13.574Z,71.93
2023-06-04T01:39:43.783Z,72.01
2023-06-04T01:42:11.747Z,72.03
2023-06-04T01:44:39.565Z,72.23
2023-06-04T01:47:07.292Z,72.38
2023-06-04T01:49:35.153Z,72.47
2023-06-04T01:52:02.928Z,72.63
2023-06-04T01:54:31.418Z,72.78
2023-06-04T01:56:59.128Z,72.95
2023-06-04T01:59:28.178Z,73.05
2023-06-04T02:01:55.889Z,73.07
2023-06-04T02:04:24.169Z,73.07
2023-06-04T02:06:51.880Z,73.19
2023-06-04T02:09:19.722Z,73.35
2023-06-04T02:11:47.654Z,73.40
2023-06-04T02:14:15.445Z,73.43
2023-06-04T02:16:43.301Z,73.50
2023-06-04T02:19:14.133Z,73.64
2023-06-04T02:21:41.882Z,73.67
2023-06-04T02:24:09.717Z,73.58
2023-06-04T02:26:37.555Z,73.57
2023-06-04T02:29:05.693Z,73.64
2023-06-04T02:31:33.503Z,73.70
2023-06-04T02:34:01.268Z,73.68
2023-06-04T02:36:31.303Z,73.69
2023-06-04T02:38:59.161Z,73.62
2023-06-04T02:41:26.947Z,73.54
2023-06-04T02:43:54.773Z,73.41
2023-06-04T02:46:22.524Z,73.47
2023-06-04T02:48:50.249Z,73.57
2023-06-04T02:51:18.527Z,73.60
2023-06-04T02:53:47.309Z,73.63
2023-06-04T02:56:15.128Z,73.61
2023-06-04T02:58:59.404Z,73.66
2023-06-04T03:01:28.237Z,73.56
2023-06-04T03:03:56.222Z,73.66
2023-06-04T03:06:24.693Z,73.84
2023-06-04T03:08:53.809Z,74.02
2023-06-04T03:11:22.438Z,74.05
2023-06-04T03:13:50.365Z,74.16
2023-06-04T03:16:18.348Z,74.11
2023-06-04T03:18:46.140Z,74.12
2023-06-04T03:21:14.369Z,74.20
2023-06-04T03:23:42.313Z,74.26
2023-06-04T03:26:10.209Z,74.19
2023-06-04T03:28:37.990Z,74.22
2023-06-04T03:31:06.207Z,74.21
2023-06-04T03:33:34.230Z,74.18
2023-06-04T03:36:02.992Z,74.14
2023-06-04T03:38:30.754Z,74.01
2023-06-04T03:40:58.567Z,74.05
2023-06-04T03:43:26.322Z,74.10
2023-06-04T03:45:54.461Z,74.09
2023-06-04T03:48:22.416Z,74.01
2023-06-04T03:50:50.533Z,73.91
2023-06-04T03:53:18.372Z,73.84
2023-06-04T03:55:46.110Z,73.70
2023-06-04T03:58:15.768Z,73.61
2023-06-04T04:00:43.624Z,73.58
2023-06-04T04:03:11.478Z,73.63
2023-06-04T04:05:39.407Z,73.67
2023-06-04T04:08:07.197Z,73.67
2023-06-04T04:10:34.982Z,73.59
2023-06-04T04:13:02.773Z,73.43
2023-06-04T04:15:30.598Z,73.08
2023-06-04T04:17:58.472Z,72.85
2023-06-04T04:20:26.801Z,72.90
2023-06-04T04:22:54.584Z,72.56
2023-06-04T04:25:22.461Z,72.20
2023-06-04T04:27:50.265Z,72.20
2023-06-04T04:30:18.963Z,72.03
2023-06-04T04:32:50.201Z,71.88
2023-06-04T04:35:19.184Z,72.18
2023-06-04T04:37:47.031Z,72.13
2023-06-04T04:40:15.634Z,71.81
2023-06-04T04:42:43.526Z,69.93
2023-06-04T04:45:11.740Z,69.32
2023-06-04T04:47:39.658Z,68.40
2023-06-04T04:50:08.081Z,69.01
2023-06-04T04:52:35.981Z,65.81
2023-06-04T04:55:04.130Z,64.49
2023-06-04T04:57:31.914Z,62.65
2023-06-04T04:59:59.772Z,61.81
2023-06-04T05:02:27.625Z,61.23
2023-06-04T05:04:55.473Z,59.98
2023-06-04T05:07:24.625Z,60.17
2023-06-04T05:09:52.401Z,59.57
2023-06-04T05:12:20.114Z,59.81
2023-06-04T05:14:47.874Z,58.91
2023-06-04T05:17:17.572Z,58.45
2023-06-04T05:19:45.389Z,59.20
2023-06-04T05:22:13.814Z,59.00
2023-06-04T05:24:41.590Z,58.28
2023-06-04T05:27:10.590Z,57.06
2023-06-04T05:29:38.434Z,57.11
2023-06-04T05:32:06.511Z,56.60
2023-06-04T05:34:37.783Z,56.79
2023-06-04T05:37:12.262Z,55.65
2023-06-04T05:39:40.218Z,55.38
2023-06-04T05:42:08.007Z,54.24
2023-06-04T05:44:35.924Z,53.75
2023-06-04T05:47:03.795Z,52.89
2023-06-04T05:49:31.656Z,51.43
2023-06-04T05:51:59.383Z,47.39
2023-06-04T05:54:28.146Z,47.55
2023-06-04T05:56:56.233Z,47.73
2023-06-04T05:59:23.931Z,45.95
2023-06-04T06:01:51.750Z,44.71
2023-06-04T06:04:19.612Z,42.55
2023-06-04T06:06:49.655Z,40.07
2023-06-04T06:09:17.669Z,38.78
2023-06-04T06:11:45.397Z,38.70
2023-06-04T06:14:13.136Z,38.89
2023-06-04T06:16:41.817Z,38.38
2023-06-04T06:19:09.580Z,37.67
2023-06-04T06:21:37.387Z,36.44
2023-06-04T06:24:05.847Z,35.91
2023-06-04T06:26:33.639Z,34.33
2023-06-04T06:29:01.775Z,35.44
2023-06-04T06:31:29.950Z,34.73
2023-06-04T06:33:57.707Z,35.75
2023-06-04T06:36:25.438Z,35.06
2023-06-04T06:38:53.607Z,33.40
2023-06-04T06:41:21.975Z,33.04
2023-06-04T06:43:49.837Z,33.82
2023-06-04T06:46:17.678Z,33.61
2023-06-04T06:48:46.798Z,34.30
2023-06-04T06:51:14.928Z,33.72
2023-06-04T06:53:43.077Z,32.21
2023-06-04T06:56:11.093Z,31.20
2023-06-04T06:58:39.037Z,31.61
2023-06-04T07:01:08.290Z,31.82
2023-06-04T07:03:36.530Z,32.25
2023-06-04T07:06:05.882Z,32.78
2023-06-04T07:08:37.019Z,31.88
2023-06-04T07:18:15.311Z,27.43
2023-06-04T07:20:57.517Z,28.98
2023-06-04T07:23:41.988Z,28.61
2023-06-04T07:29:31.623Z,29.21
2023-06-04T07:32:43.092Z,29.87
2023-06-04T07:35:16.709Z,29.63
2023-06-04T07:37:50.161Z,28.44
2023-06-04T07:40:18.444Z,28.53
2023-06-04T07:42:47.872Z,29.67
2023-06-04T07:45:16.719Z,28.99
2023-06-04T07:47:44.695Z,27.50
2023-06-04T07:50:12.727Z,26.67
2023-06-04T07:52:40.627Z,26.64
2023-06-04T07:55:09.484Z,27.08
2023-06-04T07:57:37.421Z,27.13
2023-06-04T08:00:06.963Z,25.84
2023-06-04T08:02:35.122Z,25.60
2023-06-04T08:05:20.223Z,26.01
2023-06-04T08:07:48.724Z,25.24
2023-06-04T08:10:16.591Z,23.37
2023-06-04T08:12:44.534Z,23.56
2023-06-04T08:15:24.457Z,24.27
2023-06-04T08:17:52.417Z,25.00
2023-06-04T08:20:29.446Z,24.85
2023-06-04T08:22:57.402Z,24.85
2023-06-04T08:25:25.198Z,26.94
2023-06-04T08:27:53.148Z,26.25
2023-06-04T08:30:20.925Z,24.81
2023-06-04T08:32:49.698Z,24.13
2023-06-04T08:35:17.564Z,24.47
2023-06-04T08:37:45.364Z,23.19
2023-06-04T08:40:13.383Z,24.09
2023-06-04T08:42:48.014Z,25.66
2023-06-04T08:45:17.641Z,24.84
2023-06-04T08:47:49.766Z,24.90
2023-06-04T08:50:19.313Z,24.67
2023-06-04T08:52:48.270Z,24.45
2023-06-04T08:55:16.457Z,23.38
2023-06-04T08:57:44.677Z,24.35
2023-06-04T09:00:14.106Z,24.26
2023-06-04T09:02:42.200Z,24.63
2023-06-04T09:05:11.577Z,24.33
2023-06-04T09:07:42.181Z,24.07
2023-06-04T09:10:13.876Z,23.82
2023-06-04T09:12:45.306Z,23.84
2023-06-04T09:15:13.375Z,24.62
2023-06-04T09:17:47.685Z,24.19
2023-06-04T09:20:23.257Z,22.97
2023-06-04T09:22:54.973Z,21.56
2023-06-04T09:25:28.137Z,22.57
2023-06-04T09:28:07.953Z,22.80
2023-06-04T09:30:36.430Z,23.03
2023-06-04T09:33:09.034Z,22.71
2023-06-04T09:35:37.462Z,21.72
2023-06-04T09:38:06.388Z,21.61
2023-06-04T09:40:39.154Z,21.71
2023-06-04T09:43:07.319Z,21.47
2023-06-04T09:45:36.585Z,21.68
2023-06-04T09:48:09.397Z,23.09
2023-06-04T09:50:43.172Z,21.98
2023-06-04T09:53:23.878Z,23.09
2023-06-04T09:55:59.473Z,22.09
2023-06-04T09:58:28.593Z,20.68
2023-06-04T10:00:58.234Z,20.33
2023-06-04T10:07:09.433Z,21.00
2023-06-04T10:09:46.635Z,21.58
2023-06-04T10:12:21.608Z,21.49
2023-06-04T10:15:02.997Z,20.67
2023-06-04T10:17:32.176Z,20.55
2023-06-04T10:20:05.018Z,21.21
2023-06-04T10:26:52.546Z,19.58
2023-06-04T10:29:34.012Z,19.79
2023-06-04T10:32:25.338Z,19.56
2023-06-04T10:35:15.056Z,18.44
2023-06-04T10:38:03.406Z,19.20
2023-06-04T10:40:47.135Z,18.09
2023-06-04T10:43:20.206Z,17.80
2023-06-04T10:45:49.019Z,19.34
2023-06-04T10:50:54.005Z,20.15
2023-06-04T10:54:33.593Z,19.22
2023-06-04T10:57:12.470Z,18.36
2023-06-04T10:59:40.768Z,17.36
2023-06-04T11:02:10.022Z,18.67
2023-06-04T11:04:41.350Z,20.11
2023-06-04T11:07:10.307Z,20.79
2023-06-04T11:09:48.539Z,20.36
2023-06-04T11:12:16.710Z,20.27
2023-06-04T11:14:58.221Z,19.77
2023-06-04T11:17:26.133Z,18.81
2023-06-04T11:19:57.007Z,18.28
2023-06-04T11:22:25.210Z,18.06
2023-06-04T11:25:00.431Z,17.88
2023-06-04T11:30:03.814Z,17.15
2023-06-04T11:32:32.171Z,17.54
2023-06-04T11:35:07.652Z,18.27
2023-06-04T11:37:36.882Z,18.87
2023-06-04T11:40:18.875Z,18.77
2023-06-04T11:42:48.802Z,17.78
2023-06-04T11:45:19.081Z,17.80
2023-06-04T11:47:56.583Z,17.34
2023-06-04T11:50:28.345Z,17.44
2023-06-04T11:52:57.765Z,17.58
2023-06-04T11:55:27.194Z,17.16
2023-06-04T11:57:56.140Z,16.74
2023-06-04T12:00:24.240Z,16.53
2023-06-04T12:02:55.018Z,15.80
2023-06-04T12:05:33.243Z,15.99
2023-06-04T12:08:10.196Z,17.35
2023-06-04T12:10:43.068Z,18.05
2023-06-04T12:13:11.323Z,18.26
2023-06-04T12:15:39.317Z,17.28
2023-06-04T12:18:07.479Z,15.82
2023-06-04T12:20:40.698Z,15.51
2023-06-04T12:23:08.749Z,15.29
2023-06-04T12:25:38.893Z,15.63
2023-06-04T12:28:07.277Z,15.44
2023-06-04T12:32:40.370Z,14.27
2023-06-04T12:36:19.515Z,14.20
2023-06-04T12:50:26.219Z,14.22
2023-06-04T12:52:54.098Z,14.69
2023-06-04T12:55:22.063Z,15.20
2023-06-04T12:57:50.008Z,15.69
2023-06-04T13:00:18.008Z,15.82
2023-06-04T13:02:46.267Z,16.30
2023-06-04T13:06:10.989Z,16.38
2023-06-04T13:34:08.980Z,18.04
2023-06-04T13:37:06.915Z,18.36
2023-06-04T13:50:59.251Z,17.04
2023-06-04T13:53:45.914Z,16.02
2023-06-04T13:56:14.170Z,16.49
2023-06-04T13:58:41.944Z,16.19
2023-06-04T14:01:10.010Z,15.76
2023-06-04T14:03:38.523Z,16.11
2023-06-04T14:06:06.721Z,16.09
2023-06-04T14:08:34.686Z,15.72
2023-06-04T14:17:52.528Z,17.42
2023-06-04T14:31:57.118Z,17.96
2023-06-04T14:34:25.608Z,17.58
2023-06-04T14:36:53.804Z,16.53
2023-06-04T14:39:29.065Z,16.24
2023-06-04T14:41:59.695Z,16.76
2023-06-04T14:44:27.453Z,15.92
2023-06-04T14:46:55.337Z,15.84
2023-06-04T14:49:23.730Z,15.69
2023-06-04T14:51:51.590Z,15.42
2023-06-04T14:56:38.023Z,15.49
2023-06-04T14:59:56.627Z,15.22
2023-06-04T15:04:07.134Z,14.52
2023-06-04T15:18:12.691Z,16.29
2023-06-04T15:20:58.491Z,16.72
2023-06-04T15:23:26.555Z,16.31
2023-06-04T15:25:54.737Z,15.82
2023-06-04T15:28:22.718Z,16.54
2023-06-04T15:30:50.692Z,16.59
2023-06-04T15:33:18.567Z,16.48
2023-06-04T15:35:46.351Z,16.40
2023-06-04T15:38:14.152Z,15.66
2023-06-04T15:40:42.249Z,15.43
2023-06-04T15:43:10.276Z,15.65
2023-06-04T15:47:26.200Z,15.74
2023-06-04T15:49:54.496Z,16.16
2023-06-04T15:52:48.273Z,17.78
2023-06-04T15:55:17.233Z,18.68
2023-06-04T15:57:45.087Z,19.03
2023-06-04T16:00:13.811Z,19.67
2023-06-04T16:03:53.686Z,20.50
2023-06-04T16:08:03.768Z,21.60
2023-06-04T16:11:17.375Z,21.08
2023-06-04T16:15:09.333Z,21.94
2023-06-04T16:28:39.183Z,23.98
2023-06-04T16:32:24.023Z,24.05
2023-06-04T16:36:25.653Z,24.48
2023-06-04T16:39:45.934Z,24.13
2023-06-04T16:53:59.555Z,25.42
2023-06-04T16:56:28.290Z,25.31
2023-06-04T16:58:57.241Z,26.10
2023-06-04T17:01:26.028Z,26.34
2023-06-04T17:03:55.134Z,26.20
2023-06-04T17:06:23.494Z,26.44
2023-06-04T17:08:52.032Z,26.06
2023-06-04T17:11:20.922Z,25.75
2023-06-04T17:13:50.544Z,26.05
2023-06-04T17:16:19.038Z,26.37
2023-06-04T17:18:47.796Z,26.50
2023-06-04T17:21:18.385Z,26.79
2023-06-04T17:23:49.498Z,27.27
2023-06-04T17:26:18.171Z,27.21
2023-06-04T17:28:46.494Z,27.65
2023-06-04T17:31:19.334Z,28.02
2023-06-04T17:33:47.867Z,28.09
2023-06-04T17:36:16.528Z,28.05
2023-06-04T17:38:45.135Z,28.54
2023-06-04T17:41:13.603Z,28.92
2023-06-04T17:43:44.904Z,29.20
2023-06-04T17:46:13.642Z,29.18
2023-06-04T17:48:42.684Z,29.22
2023-06-04T17:51:11.716Z,29.20
2023-06-04T17:53:40.971Z,29.76
2023-06-04T17:56:10.818Z,29.66
2023-06-04T17:58:40.070Z,29.99
2023-06-04T18:01:08.744Z,30.22
2023-06-04T18:03:36.830Z,30.31
2023-06-04T18:06:05.361Z,30.59
2023-06-04T18:08:33.502Z,30.82
2023-06-04T18:11:01.693Z,31.06
2023-06-04T18:13:29.832Z,31.55
2023-06-04T18:15:57.748Z,31.91
2023-06-04T18:18:26.869Z,32.29
2023-06-04T18:20:57.209Z,32.40
2023-06-04T18:23:25.436Z,32.64
2023-06-04T18:25:53.727Z,32.74
2023-06-04T18:28:21.755Z,32.96
2023-06-04T18:30:49.676Z,33.34
2023-06-04T18:33:17.948Z,33.68
2023-06-04T18:35:46.064Z,33.78
2023-06-04T18:38:15.947Z,33.82
2023-06-04T18:40:43.722Z,33.85
2023-06-04T18:43:12.153Z,34.22
2023-06-04T18:45:40.429Z,34.59
2023-06-04T18:48:08.353Z,35.33
2023-06-04T18:50:36.403Z,36.05
2023-06-04T18:53:04.473Z,36.50
2023-06-04T18:55:32.455Z,36.90
2023-06-04T18:58:00.521Z,37.15
2023-06-04T19:00:29.971Z,37.52
2023-06-04T19:03:00.752Z,38.19
2023-06-04T19:05:31.172Z,39.07
2023-06-04T19:08:01.334Z,39.76
2023-06-04T19:10:29.612Z,40.02
2023-06-04T19:12:57.817Z,40.36
2023-06-04T19:15:26.091Z,40.72
2023-06-04T19:17:54.312Z,40.91
2023-06-04T19:20:22.572Z,41.45
2023-06-04T19:22:50.728Z,42.30
2023-06-04T19:25:18.964Z,43.05
2023-06-04T19:27:46.827Z,43.53
2023-06-04T19:30:16.151Z,43.37
2023-06-04T19:32:45.147Z,43.43
2023-06-04T19:35:13.528Z,43.60
2023-06-04T19:37:42.115Z,43.71
2023-06-04T19:40:10.763Z,43.73
2023-06-04T19:42:39.213Z,43.91
2023-06-04T19:45:08.544Z,44.08
2023-06-04T19:47:38.550Z,44.44
2023-06-04T19:50:07.832Z,44.84
2023-06-04T19:52:35.758Z,45.29
2023-06-04T19:55:05.469Z,45.51
2023-06-04T19:57:33.290Z,45.77
2023-06-04T20:00:01.393Z,45.98
2023-06-04T20:02:29.754Z,45.91
2023-06-04T20:04:57.926Z,46.19
2023-06-04T20:07:27.644Z,46.48
2023-06-04T20:09:57.577Z,46.54
2023-06-04T20:12:25.734Z,46.35
2023-06-04T20:14:53.697Z,46.27
2023-06-04T20:17:21.760Z,46.47
2023-06-04T20:19:49.757Z,46.60
2023-06-04T20:22:17.719Z,46.99
2023-06-04T20:24:46.525Z,47.06
2023-06-04T20:27:17.883Z,47.16
2023-06-04T20:29:45.905Z,47.49
2023-06-04T20:32:13.677Z,47.88
2023-06-04T20:34:41.951Z,48.28
2023-06-04T20:37:11.627Z,48.82
2023-06-04T20:39:40.673Z,49.22
2023-06-04T20:42:08.606Z,49.39
2023-06-04T20:44:36.705Z,49.58
2023-06-04T20:47:06.447Z,50.02
2023-06-04T20:49:34.241Z,50.38
2023-06-04T20:52:02.195Z,50.35
2023-06-04T20:54:30.240Z,50.87
2023-06-04T20:56:58.151Z,51.34
2023-06-04T20:59:25.973Z,51.45
2023-06-04T21:01:54.036Z,51.33
2023-06-04T21:04:22.355Z,51.21
2023-06-04T21:06:50.373Z,51.26
2023-06-04T21:09:18.946Z,51.52
2023-06-04T21:11:46.787Z,51.71
2023-06-04T21:14:14.809Z,51.72
2023-06-04T21:16:43.099Z,51.88
2023-06-04T21:19:20.405Z,52.09
2023-06-04T21:21:48.144Z,52.61
2023-06-04T21:24:16.038Z,52.94
2023-06-04T21:26:53.178Z,53.23
2023-06-04T21:29:23.877Z,53.48
2023-06-04T21:31:51.979Z,53.67
2023-06-04T21:34:23.027Z,53.77
2023-06-04T21:37:16.093Z,53.98
2023-06-04T21:39:43.971Z,54.27
2023-06-04T21:42:11.682Z,54.59
2023-06-04T21:44:39.414Z,54.69
2023-06-04T21:47:07.746Z,54.84
2023-06-04T21:49:37.831Z,55.22
2023-06-04T21:52:13.787Z,55.52
2023-06-04T21:54:49.261Z,55.98
2023-06-04T21:57:17.056Z,56.20
2023-06-04T21:59:44.956Z,56.20
2023-06-04T22:02:13.271Z,56.33
2023-06-04T22:04:41.140Z,56.28
2023-06-04T22:07:09.224Z,56.33
2023-06-04T22:09:37.072Z,56.35
2023-06-04T22:12:05.040Z,56.52
2023-06-04T22:14:33.483Z,56.62
2023-06-04T22:17:01.385Z,56.71
2023-06-04T22:19:29.357Z,56.78
2023-06-04T22:21:57.250Z,56.81
2023-06-04T22:24:25.219Z,57.01
2023-06-04T22:26:52.975Z,57.31
2023-06-04T22:29:21.228Z,57.67
2023-06-04T22:31:49.212Z,57.84
2023-06-04T22:34:17.244Z,57.97
2023-06-04T22:36:45.767Z,58.25
2023-06-04T22:39:13.634Z,58.50
2023-06-04T22:41:41.367Z,58.56
2023-06-04T22:44:09.165Z,58.70
2023-06-04T22:46:37.164Z,58.96
2023-06-04T22:49:04.984Z,59.11
2023-06-04T22:51:32.983Z,59.19
2023-06-04T22:54:00.871Z,59.63
2023-06-04T22:56:41.975Z,59.82
2023-06-04T22:59:11.610Z,59.87
2023-06-04T23:01:41.262Z,60.08
2023-06-04T23:04:09.305Z,60.38
2023-06-04T23:06:37.799Z,60.74
2023-06-04T23:09:05.866Z,60.98
2023-06-04T23:11:33.668Z,61.14
2023-06-04T23:14:01.560Z,61.25
2023-06-04T23:16:29.403Z,61.35
2023-06-04T23:18:57.308Z,61.45
2023-06-04T23:21:25.492Z,61.58
2023-06-04T23:23:53.405Z,61.82
2023-06-04T23:26:22.321Z,62.16
2023-06-04T23:28:50.077Z,62.31
2023-06-04T23:31:17.900Z,62.61
2023-06-04T23:33:45.630Z,62.96
2023-06-04T23:36:13.545Z,63.02
2023-06-04T23:38:41.288Z,63.10
2023-06-04T23:41:09.318Z,63.25
2023-06-04T23:43:37.235Z,63.37
2023-06-04T23:46:05.619Z,63.49
2023-06-04T23:48:33.744Z,63.63
2023-06-04T23:51:01.512Z,63.64
2023-06-04T23:53:29.324Z,64.01
2023-06-04T23:55:57.127Z,64.26
2023-06-04T23:58:24.876Z,64.41
